EDT,Max TemperatureF,Mean TemperatureF,Min TemperatureF,Max Dew PointF,MeanDew PointF,Min DewpointF,Max Humidity, Mean Humidity, Min Humidity, Max Sea Level PressureIn, Mean Sea Level PressureIn, Min Sea Level PressureIn, Max VisibilityMiles, Mean VisibilityMiles, Min VisibilityMiles, Max Wind SpeedMPH, Mean Wind SpeedMPH, Max Gust SpeedMPH,PrecipitationIn, CloudCover, Events, WindDirDegrees
2013-8-1,82,78,73,74,72,71,94,84,74,30.05,29.97,29.90,10,8,2,17,9,23,0.41,5,Rain,192
2013-8-2,86,82,78,77,75,73,91,81,70,30.04,29.99,29.90,10,8,5,16,9,23,0.00,4,,248
2013-8-3,87,84,80,78,76,76,91,83,74,30.04,30.00,29.95,10,10,8,15,9,21,0.00,0,,232
2013-8-4,85,78,71,76,71,56,91,69,47,30.01,29.92,29.86,10,8,1,15,7,24,0.28,4,Rain,355
2013-8-5,84,76,67,65,61,56,79,60,40,30.09,30.05,30.01,10,10,10,10,5,15,0.00,0,,49
2013-8-6,87,79,70,69,66,62,79,65,51,30.10,30.07,30.02,10,10,10,12,7,15,T,2,,108
2013-8-7,90,85,79,72,69,66,74,63,52,30.13,30.10,30.08,10,10,10,13,9,16,0.00,0,,132
2013-8-8,90,85,79,77,75,72,91,78,64,30.09,30.07,30.05,10,10,10,12,7,17,T,1,Rain,163
2013-8-9,88,84,80,78,76,75,91,80,68,30.09,30.06,30.03,10,10,8,17,11,25,0.00,0,,231
2013-8-10,88,82,75,77,75,72,91,81,70,30.16,30.10,30.04,10,7,1,17,10,30,0.56,3,Rain-Thunderstorm,253
2013-8-11,87,82,77,79,77,73,91,81,70,30.12,30.08,30.04,10,9,2,14,5,23,0.06,2,Thunderstorm,230
2013-8-12,89,83,77,79,77,73,88,79,70,30.08,30.01,29.96,10,8,2,10,7,16,T,1,Rain-Thunderstorm,242
2013-8-13,88,84,79,79,77,71,88,79,70,29.95,29.88,29.81,9,6,3,22,11,29,0.01,4,Rain,237
2013-8-14,82,77,72,78,69,56,91,72,53,30.05,29.89,29.78,10,8,1,20,10,29,0.76,6,Rain,345
2013-8-15,74,72,69,70,65,58,90,74,57,30.12,30.08,30.04,10,9,2,12,6,20,0.32,8,Rain,52
2013-8-16,82,78,73,73,70,69,93,81,69,30.11,30.06,30.01,10,10,10,15,8,23,0.00,6,Rain,28
2013-8-17,83,79,75,76,74,73,94,84,74,30.16,30.11,30.09,10,8,1,17,8,24,0.91,6,Rain,129
2013-8-18,85,81,76,76,74,72,94,80,65,30.19,30.14,30.09,10,9,5,20,8,28,0.00,2,,250
2013-8-19,83,79,74,73,71,69,88,77,65,30.17,30.14,30.10,10,10,10,9,4,14,0.04,7,Rain,51
2013-8-20,86,81,75,72,70,68,87,74,61,30.18,30.14,30.09,10,10,10,10,5,16,0.00,4,,49
2013-8-21,89,82,74,75,71,67,87,69,51,30.23,30.18,30.14,10,10,10,12,6,14,0.00,0,,100
2013-8-22,88,84,80,77,75,71,85,74,63,30.14,30.08,30.01,10,10,10,13,8,17,T,0,Rain,250
2013-8-23,102,88,78,76,74,72,85,55,25,30.01,29.98,29.94,10,8,1,9,7,17,0.25,3,Rain,285
2013-8-24,82,78,73,66,62,59,64,59,54,30.25,30.12,29.99,10,9,5,16,11,29,0.08,3,Rain,50
2013-8-25,82,77,72,64,61,57,68,61,54,30.32,30.28,30.24,10,10,10,17,10,28,0.00,0,,48
2013-8-26,83,75,67,64,62,59,78,62,46,30.27,30.21,30.13,10,10,10,10,5,15,0.00,0,,44
2013-8-27,85,78,71,67,64,60,79,65,51,30.12,30.04,29.99,10,10,10,18,11,25,0.00,0,,250
2013-8-28,84,81,77,76,72,68,85,75,65,30.00,29.95,29.90,10,9,7,17,12,24,T,2,,247
2013-8-29,86,81,75,76,72,68,91,80,69,29.98,29.90,29.81,10,9,5,16,10,25,0.03,6,Rain,25
2013-8-30,85,79,72,71,69,66,87,73,58,30.04,30.00,29.96,10,10,10,14,6,22,0.00,0,,49
2013-8-31,91,81,70,76,73,68,97,78,59,30.00,29.96,29.92,10,10,6,12,6,15,0.00,1,,163